Time;durP1;ratioP1;P1;durP2;ratioP2;P2;SDS_P1;SDS_P2;PMS_P1;PMS_P2;Temp;Humidity;BMP_temperature;BMP_pressure;BME280_temperature;BME280_humidity;BME280_pressure;Samples;Min_cycle;Max_cycle;Signal;HPM_P1;HPM_P2
2021/12/17 00:09:35;;;;;;;129.77;69.55;;;;;;;-0.19;83.63;98506.59;10378399;28;20384;-56
2021/12/17 00:14:37;;;;;;;130.73;73.03;;;;;;;-0.18;83.20;98527.09;10373301;28;20072;-56
2021/12/17 00:57:00;;;;;;;100.55;56.90;;;;;;;0.09;85.26;98483.41;10353163;28;20064;-56
2021/12/17 01:02:02;;;;;;;122.38;65.60;;;;;;;0.18;85.13;98480.47;10376154;28;20455;-56
2021/12/17 01:07:02;;;;;;;113.88;61.83;;;;;;;0.12;85.21;98472.50;10376893;28;20060;-56
2021/12/17 01:12:03;;;;;;;87.63;49.22;;;;;;;0.07;85.50;98474.81;10375354;28;20064;-56
2021/12/17 01:17:04;;;;;;;82.80;45.58;;;;;;;-0.01;85.42;98466.75;10374173;28;20076;-56
2021/12/17 01:43:09;;;;;;;88.35;46.85;;;;;;;-0.10;85.07;98457.75;10375404;28;20071;-56
2021/12/17 01:48:14;;;;;;;91.50;47.63;;;;;;;-0.08;85.28;98448.50;10375032;28;20094;-56
2021/12/17 02:03:48;;;;;;;81.75;40.55;;;;;;;-0.22;85.73;98469.06;10373606;28;20068;-57
2021/12/17 02:08:49;;;;;;;76.95;40.78;;;;;;;-0.36;86.11;98462.38;10374036;28;20020;-56
2021/12/17 02:50:11;;;;;;;64.65;33.33;;;;;;;-0.26;85.60;98454.38;10331854;28;20077;-56
2021/12/17 02:55:10;;;;;;;67.50;33.97;;;;;;;-0.23;85.41;98453.66;10331552;28;20071;-56
2021/12/17 03:00:09;;;;;;;69.15;35.35;;;;;;;-0.18;85.44;98447.16;10331064;28;20050;-56
2021/12/17 03:05:09;;;;;;;70.20;35.00;;;;;;;-0.16;85.38;98440.44;10332050;28;20491;-56
2021/12/17 03:10:10;;;;;;;70.38;35.63;;;;;;;-0.11;85.46;98439.03;10331091;28;20056;-56
2021/12/17 03:25:56;;;;;;;109.13;56.30;;;;;;;-0.02;85.74;98408.88;10213939;28;20058;-56
2021/12/17 03:30:56;;;;;;;93.72;54.05;;;;;;;-0.01;85.94;98377.47;10310603;28;20104;-57
2021/12/17 03:35:57;;;;;;;103.45;54.80;;;;;;;-0.02;86.22;98403.78;10337625;28;20072;-56
2021/12/17 03:46:15;;;;;;;102.55;52.42;;;;;;;-0.16;86.67;98402.19;10347041;28;20060;-56
2021/12/17 03:51:16;;;;;;;101.57;55.97;;;;;;;-0.10;86.37;98415.25;10379401;28;20084;-56
2021/12/17 03:56:16;;;;;;;102.50;55.78;;;;;;;-0.08;86.41;98418.78;10379317;28;20060;-56
2021/12/17 04:01:15;;;;;;;108.65;58.45;;;;;;;0.01;86.52;98400.50;10378510;28;20083;-56
2021/12/17 04:06:15;;;;;;;85.78;48.50;;;;;;;0.16;86.10;98390.19;10378368;28;20072;-56
2021/12/17 04:11:18;;;;;;;85.40;47.95;;;;;;;0.23;86.14;98374.38;10378502;28;20075;-56
2021/12/17 04:16:22;;;;;;;85.63;47.85;;;;;;;0.27;86.08;98355.88;10378172;28;20064;-56
2021/12/17 04:21:21;;;;;;;81.63;47.38;;;;;;;0.36;86.38;98335.91;10377574;28;20507;-56
2021/12/17 04:26:23;;;;;;;87.28;48.33;;;;;;;0.36;86.27;98335.91;10377292;28;20511;-56
2021/12/17 04:31:25;;;;;;;102.75;53.17;;;;;;;0.36;86.31;98330.78;10377687;28;20071;-56
2021/12/17 04:36:31;;;;;;;111.35;64.70;;;;;;;0.37;86.22;98336.75;10377475;28;20512;-56
2021/12/17 04:41:52;;;;;;;129.68;64.50;;;;;;;0.24;86.55;98337.84;10377846;28;20479;-56
2021/12/17 04:47:04;;;;;;;150.93;77.50;;;;;;;0.15;87.08;98337.41;10376846;28;20071;-56
2021/12/17 05:02:23;;;;;;;93.80;53.60;;;;;;;0.37;86.03;98368.28;10376740;28;20088;-56
2021/12/17 05:07:24;;;;;;;85.07;48.15;;;;;;;0.34;86.45;98375.78;10375968;28;20067;-56
2021/12/17 05:22:59;;;;;;;62.92;34.10;;;;;;;0.27;86.41;98350.75;10375317;28;20064;-56
2021/12/17 05:28:02;;;;;;;62.22;35.03;;;;;;;0.32;86.26;98341.66;10375418;28;20064;-57
2021/12/17 05:33:02;;;;;;;73.25;42.10;;;;;;;0.24;85.86;98348.03;10375962;28;20079;-56
2021/12/17 05:38:01;;;;;;;57.28;34.47;;;;;;;0.21;85.84;98355.56;10374525;28;20068;-56
2021/12/17 05:43:02;;;;;;;70.93;38.67;;;;;;;0.14;85.69;98328.84;10374812;28;20046;-56
2021/12/17 05:48:07;;;;;;;70.32;40.28;;;;;;;0.26;85.90;98333.69;10372732;28;20076;-56
2021/12/17 05:53:07;;;;;;;68.43;38.97;;;;;;;0.32;85.68;98348.44;10372434;28;20073;-57
2021/12/17 05:58:08;;;;;;;95.05;55.08;;;;;;;0.29;85.64;98349.16;10367443;28;20141;-57
2021/12/17 06:03:08;;;;;;;97.75;54.70;;;;;;;0.37;85.67;98368.28;10372086;28;20069;-56
2021/12/17 06:08:07;;;;;;;135.40;75.80;;;;;;;0.34;85.31;98382.56;10373140;28;20526;-56
2021/12/17 06:13:06;;;;;;;97.05;54.33;;;;;;;0.23;85.55;98397.34;10373914;28;20477;-56
2021/12/17 06:18:05;;;;;;;78.10;44.63;;;;;;;0.30;85.62;98391.75;10372540;28;20061;-56
2021/12/17 06:23:04;;;;;;;63.88;36.00;;;;;;;0.43;85.45;98378.78;10372797;28;20068;-56
2021/12/17 06:28:03;;;;;;;66.70;38.95;;;;;;;0.54;85.51;98355.44;10372334;28;20044;-56
2021/12/17 06:33:02;;;;;;;67.45;40.00;;;;;;;0.71;85.17;98354.59;10373297;28;20524;-56
2021/12/17 06:38:04;;;;;;;66.53;38.30;;;;;;;0.79;84.89;98343.03;10372125;28;20075;-56
2021/12/17 06:43:03;;;;;;;74.32;43.17;;;;;;;-0.42;84.73;98122.94;10372548;28;20575;-56
2021/12/17 06:48:03;;;;;;;92.90;52.20;;;;;;;0.92;84.68;98346.16;10350816;28;20519;-57
2021/12/17 07:34:45;;;;;;;77.55;41.42;;;;;;;0.44;85.18;98314.16;10370809;28;20079;-56
2021/12/17 07:39:44;;;;;;;85.45;48.90;;;;;;;0.73;84.88;98316.31;10370751;28;20068;-56
2021/12/17 07:44:43;;;;;;;92.57;53.15;;;;;;;0.87;84.68;98322.94;10372232;28;20086;-56
2021/12/17 07:49:42;;;;;;;94.93;47.08;;;;;;;0.98;84.52;98329.44;10370607;28;20475;-56
2021/12/17 07:54:41;;;;;;;95.50;47.03;;;;;;;1.00;84.51;98307.38;10370410;28;20485;-56
2021/12/17 07:59:40;;;;;;;57.30;34.00;;;;;;;0.88;84.42;98334.94;10374622;28;20130;-56
2021/12/17 08:04:39;;;;;;;52.38;29.65;;;;;;;0.64;84.65;98337.22;10398057;28;20056;-57
2021/12/17 08:09:39;;;;;;;57.28;34.35;;;;;;;0.46;84.75;98322.75;10403820;28;20028;-56
2021/12/17 08:14:38;;;;;;;59.90;37.03;;;;;;;0.62;84.76;98316.72;10378385;28;20064;-56
2021/12/17 08:25:14;;;;;;;70.72;40.53;;;;;;;1.13;84.36;98319.03;10377594;28;20072;-56
2021/12/17 08:35:13;;;;;;;74.95;42.72;;;;;;;1.45;84.23;98314.47;10377622;28;20076;-56
2021/12/17 08:40:12;;;;;;;85.97;51.70;;;;;;;1.60;83.28;98312.59;10376455;28;20071;-56
2021/12/17 08:45:11;;;;;;;88.45;53.03;;;;;;;1.83;83.13;98315.22;10376568;28;20044;-56
2021/12/17 08:50:12;;;;;;;70.07;46.90;;;;;;;1.94;82.08;98321.69;10376219;28;20064;-56
2021/12/17 08:55:11;;;;;;;75.72;50.65;;;;;;;2.29;81.66;98300.09;10376325;28;20504;-56
2021/12/17 09:00:12;;;;;;;93.07;55.63;;;;;;;2.41;81.21;98294.59;10374660;28;20142;-56
2021/12/17 09:05:11;;;;;;;100.75;62.25;;;;;;;2.37;81.25;98274.78;10400735;28;20067;-56
2021/12/17 09:10:11;;;;;;;124.00;77.55;;;;;;;2.51;81.00;98281.34;10397775;28;20039;-57
2021/12/17 09:15:10;;;;;;;142.50;95.72;;;;;;;2.53;80.39;98230.16;10375858;28;20088;-57
2021/12/17 09:20:09;;;;;;;109.90;70.90;;;;;;;2.43;79.82;98223.81;10374952;28;20124;-57
2021/12/17 09:25:09;;;;;;;;;;;;;;;2.33;80.45;98220.00;10375021;28;20065;-56
2021/12/17 09:30:12;;;;;;;159.55;100.88;;;;;;;2.34;80.39;98208.06;10375113;28;20711;-56
2021/12/17 09:35:12;;;;;;;143.32;91.10;;;;;;;2.43;80.23;98197.31;10374630;28;20103;-57
2021/12/17 09:40:12;;;;;;;146.30;93.95;;;;;;;2.74;80.25;98200.19;10374270;28;20103;-56
2021/12/17 09:45:14;;;;;;;144.20;93.57;;;;;;;2.87;80.01;98191.28;10372369;28;20500;-57
2021/12/17 09:50:17;;;;;;;142.60;96.40;;;;;;;3.19;80.18;98174.50;10365148;28;20075;-56
2021/12/17 09:55:16;;;;;;;154.18;107.22;;;;;;;3.40;79.76;98151.25;10373776;28;20068;-57
2021/12/17 10:00:19;;;;;;;94.20;60.85;;;;;;;3.40;79.22;98141.00;10374336;28;20088;-56
2021/12/17 10:05:26;;;;;;;88.70;58.00;;;;;;;3.44;79.09;98140.25;10399650;28;20071;-57
2021/12/17 10:10:37;;;;;;;87.53;55.47;;;;;;;3.37;79.24;98116.94;10393411;28;20492;-56
2021/12/17 10:15:38;;;;;;;103.03;67.47;;;;;;;3.47;79.00;98113.81;10370689;28;20488;-57
2021/12/17 10:20:53;;;;;;;100.32;67.43;;;;;;;3.59;79.30;98106.56;10372916;28;20128;-56
2021/12/17 10:25:53;;;;;;;106.57;70.43;;;;;;;3.76;79.04;98095.94;10372942;28;20562;-57
2021/12/17 10:30:53;;;;;;;101.45;67.07;;;;;;;3.89;79.22;98086.91;10371843;28;20079;-57
2021/12/17 10:35:54;;;;;;;114.38;77.18;;;;;;;3.99;78.90;98079.56;10372946;28;20483;-57
2021/12/17 10:41:08;;;;;;;110.28;71.60;;;;;;;4.07;78.78;98066.94;10371251;28;20072;-56
2021/12/17 10:46:27;;;;;;;110.00;68.45;;;;;;;4.27;78.58;98062.38;10371191;28;20064;-56
2021/12/17 10:51:32;;;;;;;106.47;66.95;;;;;;;4.38;78.30;98066.09;10371244;28;20053;-57
2021/12/17 10:56:34;;;;;;;112.07;72.35;;;;;;;4.22;77.94;98062.25;10371944;28;20476;-57
2021/12/17 11:01:36;;;;;;;95.78;66.05;;;;;;;4.13;78.33;98053.38;10371199;28;20092;-57
2021/12/17 11:07:16;;;;;;;90.10;59.13;;;;;;;3.99;78.82;98046.16;10387864;28;20067;-57
2021/12/17 11:12:17;;;;;;;87.38;56.25;;;;;;;4.05;78.60;98046.34;10327895;28;20603;-57
2021/12/17 11:17:20;;;;;;;95.47;66.75;;;;;;;3.82;79.01;98049.91;10355584;28;20060;-57
2021/12/17 11:22:23;;;;;;;82.80;54.45;;;;;;;3.73;80.08;98044.50;10371142;28;20479;-57
2021/12/17 11:27:22;;;;;;;84.32;54.33;;;;;;;3.70;79.89;98040.16;10371305;28;20147;-57
2021/12/17 11:32:22;;;;;;;88.18;57.42;;;;;;;3.68;80.67;98044.34;10372143;28;20067;-56
2021/12/17 11:37:23;;;;;;;86.78;55.40;;;;;;;3.59;81.43;98015.88;10377007;28;20064;-57
2021/12/17 11:42:35;;;;;;;105.10;66.47;;;;;;;3.64;82.32;98015.19;10374117;28;20067;-57
2021/12/17 11:47:34;;;;;;;135.95;88.25;;;;;;;3.68;83.11;98011.00;10362392;28;20071;-57
2021/12/17 11:52:49;;;;;;;133.10;86.97;;;;;;;3.77;83.40;98016.41;10354323;28;20088;-57
2021/12/17 11:57:51;;;;;;;122.88;80.50;;;;;;;3.88;82.88;97997.91;10284043;28;20064;-57
2021/12/17 12:02:55;;;;;;;92.80;61.30;;;;;;;3.99;83.41;98017.06;10323678;28;20082;-57
2021/12/17 12:08:25;;;;;;;90.85;59.17;;;;;;;4.13;83.28;98002.91;10419349;28;20465;-57
2021/12/17 12:13:40;;;;;;;100.57;56.15;;;;;;;3.70;84.16;98009.34;10342011;28;20067;-56
2021/12/17 12:18:41;;;;;;;53.65;36.83;;;;;;;3.23;86.09;98009.63;10365290;28;20061;-57
2021/12/17 12:23:45;;;;;;;71.35;44.33;;;;;;;3.21;86.59;97992.44;10336622;28;20765;-57
2021/12/17 12:28:44;;;;;;;121.00;74.20;;;;;;;3.38;86.96;98001.56;10336546;28;20083;-57
2021/12/17 12:34:05;;;;;;;95.20;56.75;;;;;;;3.41;87.15;97993.94;10336693;28;20037;-57
2021/12/17 12:39:17;;;;;;;272.00;146.95;;;;;;;3.40;87.90;97989.66;10335894;28;20061;-56
2021/12/17 12:44:16;;;;;;;214.98;120.88;;;;;;;3.32;88.41;98006.47;10335087;28;20478;-57
2021/12/17 12:49:46;;;;;;;271.65;158.45;;;;;;;3.29;88.68;98001.25;10369346;28;20068;-56
2021/12/17 12:54:49;;;;;;;82.15;48.97;;;;;;;3.34;88.83;98002.28;10376117;28;20064;-57
2021/12/17 12:59:52;;;;;;;22.80;15.55;;;;;;;3.02;88.14;97991.84;10376210;28;20084;-57
2021/12/17 13:04:57;;;;;;;19.73;13.45;;;;;;;2.94;88.71;97977.94;10378914;28;20147;-57
2021/12/17 13:09:56;;;;;;;19.50;12.95;;;;;;;2.90;89.01;97976.06;10375897;28;20474;-57
2021/12/17 13:14:56;;;;;;;20.40;13.65;;;;;;;2.95;89.14;97974.53;10373700;28;20439;-58
2021/12/17 13:20:29;;;;;;;20.52;13.13;;;;;;;2.94;89.33;97971.94;10374945;28;20122;-57
2021/12/17 13:25:28;;;;;;;29.63;20.95;;;;;;;2.88;89.22;97971.72;10375143;28;20057;-57
2021/12/17 13:30:27;;;;;;;28.67;21.48;;;;;;;2.86;89.27;97979.34;10375002;28;20060;-57
2021/12/17 13:35:27;;;;;;;24.70;18.35;;;;;;;2.81;89.22;97980.91;10374405;28;20091;-57
2021/12/17 13:40:27;;;;;;;35.03;23.63;;;;;;;2.68;89.28;97978.78;10374757;28;20087;-57
2021/12/17 13:45:26;;;;;;;38.92;26.95;;;;;;;2.66;89.63;97986.38;10374061;28;20061;-58
2021/12/17 13:50:40;;;;;;;39.65;27.77;;;;;;;2.67;89.93;97998.38;10373952;28;20039;-58
2021/12/17 13:55:43;;;;;;;42.90;30.88;;;;;;;2.69;90.11;97999.28;10374631;28;20060;-57
2021/12/17 14:00:44;;;;;;;45.20;32.55;;;;;;;2.57;90.03;98002.31;10371595;28;20072;-57
2021/12/17 14:05:48;;;;;;;41.33;28.05;;;;;;;2.69;90.21;98012.09;10402174;28;20056;-57
2021/12/17 14:10:48;;;;;;;31.88;21.85;;;;;;;2.71;89.95;98019.84;10415119;28;20605;-58
2021/12/17 14:15:49;;;;;;;31.65;24.08;;;;;;;2.62;90.23;98015.28;10413932;28;20056;-58
2021/12/17 14:20:50;;;;;;;29.67;21.10;;;;;;;2.41;89.90;98019.66;10413949;28;20771;-57
2021/12/17 14:25:57;;;;;;;25.75;17.85;;;;;;;2.33;90.15;98022.81;10413725;28;20087;-57
2021/12/17 14:30:59;;;;;;;29.77;19.63;;;;;;;2.25;90.20;98025.91;10408396;28;20076;-58
2021/12/17 14:36:06;;;;;;;25.55;17.70;;;;;;;2.10;89.98;98028.81;10411800;28;20436;-58
2021/12/17 14:41:07;;;;;;;21.63;13.63;;;;;;;2.01;90.20;98037.00;10413496;28;20067;-57
2021/12/17 15:02:12;;;;;;;36.85;25.88;;;;;;;1.94;90.14;98058.06;10371148;28;20445;-58
2021/12/17 15:07:11;;;;;;;38.72;27.08;;;;;;;1.96;90.19;98056.44;10335710;28;20060;-58
2021/12/17 15:17:28;;;;;;;43.75;33.30;;;;;;;1.75;90.96;98067.59;10372633;28;20080;-58
2021/12/17 15:22:28;;;;;;;41.45;32.00;;;;;;;1.74;90.79;98076.09;10371323;28;20053;-58
2021/12/17 15:27:29;;;;;;;23.40;16.98;;;;;;;1.77;90.95;98070.22;10372274;28;20076;-58
2021/12/17 15:32:28;;;;;;;30.42;22.50;;;;;;;1.90;91.10;98075.03;10371434;28;20061;-58
2021/12/17 15:37:27;;;;;;;27.13;19.27;;;;;;;2.05;91.35;98072.16;10370872;28;20033;-59
2021/12/17 15:42:26;;;;;;;23.17;16.40;;;;;;;2.15;91.02;98069.09;10370985;28;20065;-58
2021/12/17 15:47:25;;;;;;;25.52;18.92;;;;;;;2.27;91.40;98068.69;10371124;28;20463;-58
2021/12/17 15:52:24;;;;;;;36.25;26.30;;;;;;;2.38;91.32;98076.78;10370409;28;20091;-58
2021/12/17 15:57:23;;;;;;;66.22;49.15;;;;;;;2.42;91.23;98082.84;10370510;28;20261;-58
2021/12/17 16:02:22;;;;;;;49.72;37.55;;;;;;;2.48;91.61;98083.09;10372186;28;20414;-58
2021/12/17 16:07:21;;;;;;;51.75;34.83;;;;;;;2.48;91.30;98083.97;10411273;28;20447;-58
2021/12/17 16:22:26;;;;;;;71.65;49.30;;;;;;;2.26;91.10;98076.34;10415967;28;20067;-58
2021/12/17 16:27:25;;;;;;;53.30;33.78;;;;;;;2.36;91.21;98104.88;10418750;28;20027;-58
2021/12/17 16:32:24;;;;;;;30.42;20.50;;;;;;;2.31;90.88;98105.53;10418909;28;20064;-58
2021/12/17 16:37:23;;;;;;;25.00;16.33;;;;;;;2.25;91.20;98097.63;10416116;28;20064;-58
2021/12/17 16:42:23;;;;;;;32.58;20.75;;;;;;;2.26;90.71;98101.94;10417932;28;20464;-58
2021/12/17 16:47:23;;;;;;;;;;;;;;;2.31;91.25;98120.91;10397962;28;20065;-58
2021/12/17 16:52:26;;;;;;;39.17;27.63;;;;;;;2.29;90.46;98135.34;10376701;28;20759;-58
2021/12/17 16:57:26;;;;;;;38.30;25.73;;;;;;;2.10;90.04;98144.00;10375808;28;20064;-57
2021/12/17 17:02:25;;;;;;;25.58;15.00;;;;;;;1.50;89.83;98134.81;10375720;28;20072;-58
2021/12/17 17:07:26;;;;;;;27.75;14.27;;;;;;;0.89;90.26;98140.78;10417178;28;20066;-59
2021/12/17 17:12:28;;;;;;;28.80;16.73;;;;;;;0.63;91.72;98131.13;10416669;28;20071;-60
2021/12/17 17:17:27;;;;;;;168.13;59.10;;;;;;;0.54;92.25;98120.50;10382282;28;20064;-59
2021/12/17 17:22:26;;;;;;;62.83;29.02;;;;;;;0.72;91.94;98128.13;10375357;28;20028;-60
2021/12/17 17:27:25;;;;;;;43.30;25.02;;;;;;;0.89;91.53;98124.59;10374018;28;20033;-59
2021/12/17 17:32:24;;;;;;;47.47;29.55;;;;;;;0.99;91.79;98123.31;10373328;28;20076;-61
2021/12/17 17:37:27;;;;;;;64.65;37.47;;;;;;;1.15;91.75;98135.06;10374452;28;20137;-59
2021/12/17 17:42:26;;;;;;;56.55;33.55;;;;;;;1.20;92.08;98147.25;10374534;28;20067;-60
2021/12/17 17:47:25;;;;;;;45.50;28.20;;;;;;;1.24;92.25;98146.53;10374305;28;20060;-59
2021/12/17 17:52:24;;;;;;;56.38;33.80;;;;;;;1.28;92.44;98150.09;10372303;28;20102;-59
2021/12/17 17:57:23;;;;;;;62.38;38.38;;;;;;;1.35;92.29;98153.78;10373817;28;20098;-59
2021/12/17 18:02:22;;;;;;;55.28;32.47;;;;;;;1.11;92.37;98136.63;10374745;28;20060;-59
2021/12/17 18:07:21;;;;;;;45.28;28.38;;;;;;;1.04;92.05;98167.84;10414326;28;20487;-59
2021/12/17 18:12:20;;;;;;;35.83;20.88;;;;;;;0.87;91.01;98138.97;10414172;28;20047;-59
2021/12/17 18:17:18;;;;;;;31.17;16.10;;;;;;;0.82;90.29;98138.78;10414064;28;20028;-59
2021/12/17 18:22:18;;;;;;;32.85;21.27;;;;;;;0.84;90.34;98143.97;10414019;28;20103;-59
2021/12/17 18:27:17;;;;;;;30.63;19.63;;;;;;;1.04;91.13;98153.38;10413857;28;20056;-59
2021/12/17 18:32:17;;;;;;;36.17;19.45;;;;;;;1.15;91.20;98152.94;10413912;28;20494;-59
2021/12/17 18:37:16;;;;;;;;;;;;;;;1.20;91.42;98165.13;10413703;28;20096;-58
2021/12/17 18:47:32;;;;;;;45.15;29.48;;;;;;;1.24;91.32;98189.13;10370900;28;20068;-58
2021/12/17 18:52:31;;;;;;;36.00;22.05;;;;;;;1.32;91.53;98185.22;10357821;28;20082;-58
2021/12/17 18:57:31;;;;;;;;;;;;;;;0.92;91.49;98098.31;10370755;28;20065;-58
2021/12/17 19:02:29;;;;;;;33.05;18.88;;;;;;;1.26;90.82;98167.06;10368389;28;19960;-58
2021/12/17 19:07:28;;;;;;;55.85;34.55;;;;;;;1.07;89.74;98178.19;10371223;28;20566;-58
2021/12/17 19:12:27;;;;;;;25.40;15.55;;;;;;;1.21;90.81;98184.75;10372110;28;20037;-58
2021/12/17 19:17:30;;;;;;;36.30;21.30;;;;;;;1.32;90.68;98172.44;10371571;28;20029;-58
2021/12/17 19:22:34;;;;;;;33.67;19.27;;;;;;;1.47;91.00;98178.19;10371576;28;20079;-58
2021/12/17 19:27:33;;;;;;;32.83;19.73;;;;;;;1.52;91.27;98171.56;10369407;28;20081;-58
2021/12/17 19:32:32;;;;;;;35.08;20.40;;;;;;;1.55;91.21;98170.81;10371119;28;20559;-58
2021/12/17 19:37:31;;;;;;;33.65;20.52;;;;;;;1.61;91.21;98171.06;10371081;28;20068;-58
2021/12/17 19:42:30;;;;;;;30.52;19.42;;;;;;;1.61;91.53;98150.63;10371123;28;20064;-58
2021/12/17 19:47:43;;;;;;;36.42;21.67;;;;;;;1.69;91.44;98164.59;10381518;28;20072;-58
2021/12/17 19:52:43;;;;;;;34.65;21.30;;;;;;;1.63;91.56;98148.13;10411968;28;20071;-58
2021/12/17 19:57:42;;;;;;;46.95;30.17;;;;;;;1.44;91.60;98120.94;10420077;28;20067;-58
2021/12/17 20:02:45;;;;;;;51.67;30.15;;;;;;;1.69;91.60;98161.16;10417864;28;20048;-58
2021/12/17 20:07:44;;;;;;;49.20;31.73;;;;;;;1.69;91.42;98169.72;10417877;28;20068;-58
2021/12/17 20:12:43;;;;;;;64.55;38.33;;;;;;;1.68;91.47;98172.19;10417895;28;20103;-58
2021/12/17 20:17:42;;;;;;;;;;;;;;;1.73;91.87;98168.13;10419412;28;20072;-58
2021/12/17 20:22:42;;;;;;;56.90;35.80;;;;;;;1.66;91.54;98156.78;10405858;28;19966;-58
2021/12/17 20:27:42;;;;;;;56.45;34.30;;;;;;;1.78;92.12;98168.31;10377882;28;20073;-58
2021/12/17 20:32:42;;;;;;;25.45;15.25;;;;;;;1.77;92.07;98161.47;10375447;28;20068;-58
2021/12/17 20:37:41;;;;;;;43.70;26.90;;;;;;;1.71;91.59;98175.75;10376661;28;20075;-58
2021/12/17 20:47:40;;;;;;;62.88;42.40;;;;;;;1.70;91.53;98161.22;10376950;28;20086;-58
2021/12/17 20:52:39;;;;;;;73.07;46.17;;;;;;;1.68;91.59;98157.72;10375951;28;20077;-58
2021/12/17 20:57:39;;;;;;;72.88;45.25;;;;;;;1.67;91.74;98150.88;10377047;28;20095;-58
2021/12/17 21:02:37;;;;;;;;;;;;;;;1.51;90.93;98153.63;10375098;28;20115;-58
2021/12/17 21:07:37;;;;;;;49.08;28.45;;;;;;;1.52;91.13;98145.13;10375061;28;19915;-59
2021/12/17 21:12:41;;;;;;;41.60;26.25;;;;;;;1.49;90.46;98155.22;10375995;28;20072;-58
2021/12/17 21:17:41;;;;;;;38.88;24.92;;;;;;;1.52;90.90;98148.53;10375653;28;20064;-58
2021/12/17 21:22:41;;;;;;;49.35;30.02;;;;;;;1.58;91.13;98139.41;10374985;28;20084;-58
2021/12/17 21:27:40;;;;;;;51.58;32.50;;;;;;;1.68;91.28;98146.63;10373738;28;20621;-58
2021/12/17 21:32:40;;;;;;;;;;;;;;;1.77;91.29;98146.13;10411709;28;20068;-58
2021/12/17 21:37:39;;;;;;;105.38;54.67;;;;;;;1.77;91.52;98136.75;10413891;28;19966;-59
2021/12/17 21:42:39;;;;;;;113.80;59.25;;;;;;;1.77;91.52;98133.34;10416276;28;20032;-59
2021/12/17 21:47:38;;;;;;;;;;;;;;;1.83;91.26;98138.66;10395165;28;20071;-59
2021/12/17 21:52:36;;;;;;;70.82;41.92;;;;;;;1.79;91.11;98129.16;10373790;28;19966;-59
2021/12/17 21:57:37;;;;;;;60.47;33.13;;;;;;;1.77;90.62;98138.44;10373391;28;20047;-58
2021/12/17 22:02:36;;;;;;;60.30;33.60;;;;;;;1.70;91.13;98139.88;10373693;28;20084;-58
2021/12/17 22:07:36;;;;;;;66.15;39.53;;;;;;;1.62;91.29;98113.09;10373046;28;20520;-58
2021/12/17 22:12:35;;;;;;;75.65;44.60;;;;;;;1.73;91.33;98116.97;10373323;28;20147;-57
2021/12/17 22:17:35;;;;;;;70.45;37.88;;;;;;;1.75;91.23;98117.91;10372474;28;20403;-57
2021/12/17 22:22:34;;;;;;;54.97;31.90;;;;;;;1.58;91.23;98111.25;10372558;28;20079;-57
2021/12/17 22:27:33;;;;;;;31.70;18.85;;;;;;;1.47;90.70;98118.50;10372986;28;20037;-58
2021/12/17 22:32:32;;;;;;;29.05;18.05;;;;;;;1.45;90.82;98118.41;10407878;28;20216;-57
2021/12/17 22:37:31;;;;;;;50.50;29.63;;;;;;;1.52;91.05;98119.53;10412184;28;20589;-58
2021/12/17 22:42:30;;;;;;;45.75;28.55;;;;;;;1.44;90.76;98111.56;10413498;28;20072;-57
2021/12/17 22:47:29;;;;;;;48.63;25.08;;;;;;;1.41;90.79;98115.69;10393936;28;20064;-57
2021/12/17 22:52:28;;;;;;;34.80;19.05;;;;;;;1.46;90.93;98103.97;10372193;28;20091;-57
2021/12/17 22:57:27;;;;;;;30.90;18.45;;;;;;;1.49;90.71;98107.50;10372038;28;20121;-57
2021/12/17 23:02:27;;;;;;;29.08;16.48;;;;;;;1.41;89.74;98095.22;10372278;28;20044;-58
2021/12/17 23:07:42;;;;;;;23.42;12.30;;;;;;;1.45;90.68;98102.22;10372221;28;20076;-58
2021/12/17 23:12:41;;;;;;;24.50;12.40;;;;;;;1.44;90.27;98091.13;10371808;28;20075;-58
2021/12/17 23:17:40;;;;;;;21.70;12.35;;;;;;;1.40;90.35;98098.59;10372117;28;20033;-57
2021/12/17 23:22:39;;;;;;;21.25;12.40;;;;;;;1.35;89.86;98090.75;10368094;28;20032;-57
2021/12/17 23:27:38;;;;;;;20.55;12.40;;;;;;;1.26;90.31;98081.00;10369084;28;20120;-57
2021/12/17 23:32:40;;;;;;;;;;;;;;;1.30;90.20;98087.13;10379624;28;20555;-57
2021/12/17 23:37:39;;;;;;;21.27;11.82;;;;;;;1.27;90.16;98086.97;10379529;28;19955;-58
2021/12/17 23:42:38;;;;;;;;;;;;;;;1.22;90.47;98086.78;10380305;28;20514;-58
2021/12/17 23:47:37;;;;;;;33.33;17.83;;;;;;;1.23;90.22;98080.91;10378452;28;20117;-58
2021/12/17 23:52:36;;;;;;;32.20;17.73;;;;;;;1.23;90.42;98080.03;10378903;28;20550;-58
2021/12/17 23:57:35;;;;;;;28.45;16.20;;;;;;;1.21;90.43;98086.75;10379306;28;20500;-58
